sensor_id;sensor_type;location;lat;lon;timestamp;P1;durP1;ratioP1;P2;durP2;ratioP2
39728;SDS011;25402;42.004;23.088;2024-01-10T00:01:03;17.40;;;3.42;;
39728;SDS011;25402;42.004;23.088;2024-01-10T00:03:30;12.38;;;3.55;;
39728;SDS011;25402;42.004;23.088;2024-01-10T00:05:59;16.17;;;3.90;;
39728;SDS011;25402;42.004;23.088;2024-01-10T00:08:26;15.63;;;3.45;;
39728;SDS011;25402;42.004;23.088;2024-01-10T00:10:53;12.70;;;3.58;;
39728;SDS011;25402;42.004;23.088;2024-01-10T00:13:20;10.10;;;3.50;;
39728;SDS011;25402;42.004;23.088;2024-01-10T00:15:47;17.30;;;3.20;;
39728;SDS011;25402;42.004;23.088;2024-01-10T00:18:15;8.70;;;3.08;;
39728;SDS011;25402;42.004;23.088;2024-01-10T00:20:41;14.85;;;3.67;;
39728;SDS011;25402;42.004;23.088;2024-01-10T00:23:09;13.07;;;3.35;;
39728;SDS011;25402;42.004;23.088;2024-01-10T00:25:36;12.20;;;3.53;;
39728;SDS011;25402;42.004;23.088;2024-01-10T00:28:04;7.05;;;2.95;;
39728;SDS011;25402;42.004;23.088;2024-01-10T00:30:31;16.38;;;3.30;;
39728;SDS011;25402;42.004;23.088;2024-01-10T00:32:58;13.77;;;3.72;;
39728;SDS011;25402;42.004;23.088;2024-01-10T00:35:25;15.40;;;3.53;;
39728;SDS011;25402;42.004;23.088;2024-01-10T00:37:52;15.95;;;4.10;;
39728;SDS011;25402;42.004;23.088;2024-01-10T00:40:21;15.65;;;4.13;;
39728;SDS011;25402;42.004;23.088;2024-01-10T00:42:48;20.23;;;4.13;;
39728;SDS011;25402;42.004;23.088;2024-01-10T00:45:15;15.30;;;3.60;;
39728;SDS011;25402;42.004;23.088;2024-01-10T00:47:43;16.20;;;4.15;;
39728;SDS011;25402;42.004;23.088;2024-01-10T00:50:10;16.33;;;4.05;;
39728;SDS011;25402;42.004;23.088;2024-01-10T00:52:37;19.15;;;4.03;;
39728;SDS011;25402;42.004;23.088;2024-01-10T00:55:04;17.15;;;3.75;;
39728;SDS011;25402;42.004;23.088;2024-01-10T00:57:33;10.15;;;3.53;;
39728;SDS011;25402;42.004;23.088;2024-01-10T01:00:00;19.20;;;3.60;;
39728;SDS011;25402;42.004;23.088;2024-01-10T01:02:28;15.90;;;3.92;;
39728;SDS011;25402;42.004;23.088;2024-01-10T01:04:55;10.68;;;3.22;;
39728;SDS011;25402;42.004;23.088;2024-01-10T01:07:22;12.65;;;3.65;;
39728;SDS011;25402;42.004;23.088;2024-01-10T01:09:50;13.15;;;3.17;;
39728;SDS011;25402;42.004;23.088;2024-01-10T01:12:17;19.42;;;3.67;;
39728;SDS011;25402;42.004;23.088;2024-01-10T01:14:45;15.98;;;3.70;;
39728;SDS011;25402;42.004;23.088;2024-01-10T01:17:12;15.88;;;3.75;;
39728;SDS011;25402;42.004;23.088;2024-01-10T01:19:39;21.15;;;3.95;;
39728;SDS011;25402;42.004;23.088;2024-01-10T01:22:06;33.35;;;4.40;;
39728;SDS011;25402;42.004;23.088;2024-01-10T01:24:33;21.70;;;4.65;;
39728;SDS011;25402;42.004;23.088;2024-01-10T01:27:00;28.80;;;4.20;;
39728;SDS011;25402;42.004;23.088;2024-01-10T01:29:28;15.45;;;4.05;;
39728;SDS011;25402;42.004;23.088;2024-01-10T01:31:57;22.17;;;4.63;;
39728;SDS011;25402;42.004;23.088;2024-01-10T01:34:24;23.75;;;4.10;;
39728;SDS011;25402;42.004;23.088;2024-01-10T01:36:51;19.75;;;5.63;;
39728;SDS011;25402;42.004;23.088;2024-01-10T01:39:18;24.27;;;4.43;;
39728;SDS011;25402;42.004;23.088;2024-01-10T01:41:45;24.67;;;4.93;;
39728;SDS011;25402;42.004;23.088;2024-01-10T01:44:13;11.40;;;3.42;;
39728;SDS011;25402;42.004;23.088;2024-01-10T01:46:40;14.23;;;3.63;;
39728;SDS011;25402;42.004;23.088;2024-01-10T01:49:08;28.35;;;4.47;;
39728;SDS011;25402;42.004;23.088;2024-01-10T01:51:36;21.85;;;4.82;;
39728;SDS011;25402;42.004;23.088;2024-01-10T01:54:05;15.82;;;3.45;;
39728;SDS011;25402;42.004;23.088;2024-01-10T01:56:33;22.08;;;4.78;;
39728;SDS011;25402;42.004;23.088;2024-01-10T01:59:02;15.30;;;4.20;;
39728;SDS011;25402;42.004;23.088;2024-01-10T02:01:30;20.55;;;4.10;;
39728;SDS011;25402;42.004;23.088;2024-01-10T02:03:59;18.23;;;3.95;;
39728;SDS011;25402;42.004;23.088;2024-01-10T02:06:29;18.98;;;4.68;;
39728;SDS011;25402;42.004;23.088;2024-01-10T02:08:56;22.48;;;4.15;;
39728;SDS011;25402;42.004;23.088;2024-01-10T02:11:24;17.30;;;3.83;;
39728;SDS011;25402;42.004;23.088;2024-01-10T02:13:52;16.80;;;3.83;;
39728;SDS011;25402;42.004;23.088;2024-01-10T02:16:20;14.77;;;3.80;;
39728;SDS011;25402;42.004;23.088;2024-01-10T02:18:48;17.50;;;4.00;;
39728;SDS011;25402;42.004;23.088;2024-01-10T02:21:16;14.05;;;4.03;;
39728;SDS011;25402;42.004;23.088;2024-01-10T02:23:44;19.10;;;4.05;;
39728;SDS011;25402;42.004;23.088;2024-01-10T02:26:12;10.48;;;3.22;;
39728;SDS011;25402;42.004;23.088;2024-01-10T02:28:40;10.32;;;3.35;;
39728;SDS011;25402;42.004;23.088;2024-01-10T02:31:07;15.57;;;3.70;;
39728;SDS011;25402;42.004;23.088;2024-01-10T02:33:34;18.63;;;3.38;;
39728;SDS011;25402;42.004;23.088;2024-01-10T02:36:02;24.27;;;4.38;;
39728;SDS011;25402;42.004;23.088;2024-01-10T02:38:31;17.70;;;3.88;;
39728;SDS011;25402;42.004;23.088;2024-01-10T02:40:58;19.55;;;3.63;;
39728;SDS011;25402;42.004;23.088;2024-01-10T02:43:28;11.20;;;3.38;;
39728;SDS011;25402;42.004;23.088;2024-01-10T02:45:56;8.80;;;3.28;;
39728;SDS011;25402;42.004;23.088;2024-01-10T02:48:24;9.75;;;2.80;;
39728;SDS011;25402;42.004;23.088;2024-01-10T02:50:51;14.23;;;3.30;;
39728;SDS011;25402;42.004;23.088;2024-01-10T02:53:19;18.80;;;3.60;;
39728;SDS011;25402;42.004;23.088;2024-01-10T02:55:46;21.05;;;4.95;;
39728;SDS011;25402;42.004;23.088;2024-01-10T02:58:15;14.25;;;4.13;;
39728;SDS011;25402;42.004;23.088;2024-01-10T03:00:43;13.90;;;3.92;;
39728;SDS011;25402;42.004;23.088;2024-01-10T03:03:10;11.88;;;3.28;;
39728;SDS011;25402;42.004;23.088;2024-01-10T03:05:37;14.32;;;3.70;;
39728;SDS011;25402;42.004;23.088;2024-01-10T03:08:05;19.73;;;4.03;;
39728;SDS011;25402;42.004;23.088;2024-01-10T03:10:32;14.35;;;3.28;;
39728;SDS011;25402;42.004;23.088;2024-01-10T03:12:59;12.77;;;4.32;;
39728;SDS011;25402;42.004;23.088;2024-01-10T03:15:27;8.40;;;3.28;;
39728;SDS011;25402;42.004;23.088;2024-01-10T03:17:55;10.93;;;3.80;;
39728;SDS011;25402;42.004;23.088;2024-01-10T03:20:22;16.27;;;3.67;;
39728;SDS011;25402;42.004;23.088;2024-01-10T03:22:49;9.40;;;3.38;;
39728;SDS011;25402;42.004;23.088;2024-01-10T03:25:16;16.92;;;3.80;;
39728;SDS011;25402;42.004;23.088;2024-01-10T03:27:43;12.48;;;3.47;;
39728;SDS011;25402;42.004;23.088;2024-01-10T03:30:11;11.27;;;2.97;;
39728;SDS011;25402;42.004;23.088;2024-01-10T03:32:38;9.88;;;3.30;;
39728;SDS011;25402;42.004;23.088;2024-01-10T03:35:07;12.68;;;3.42;;
39728;SDS011;25402;42.004;23.088;2024-01-10T03:37:35;8.52;;;3.10;;
39728;SDS011;25402;42.004;23.088;2024-01-10T03:40:02;14.98;;;3.58;;
39728;SDS011;25402;42.004;23.088;2024-01-10T03:42:29;12.93;;;3.25;;
39728;SDS011;25402;42.004;23.088;2024-01-10T03:44:56;11.15;;;3.63;;
39728;SDS011;25402;42.004;23.088;2024-01-10T03:47:23;10.13;;;3.70;;
39728;SDS011;25402;42.004;23.088;2024-01-10T03:49:50;17.67;;;4.13;;
39728;SDS011;25402;42.004;23.088;2024-01-10T03:52:18;14.13;;;3.70;;
39728;SDS011;25402;42.004;23.088;2024-01-10T03:54:46;10.07;;;3.75;;
39728;SDS011;25402;42.004;23.088;2024-01-10T03:57:13;16.20;;;3.58;;
39728;SDS011;25402;42.004;23.088;2024-01-10T03:59:40;11.75;;;3.33;;
39728;SDS011;25402;42.004;23.088;2024-01-10T04:02:07;14.52;;;4.03;;
39728;SDS011;25402;42.004;23.088;2024-01-10T04:04:36;8.85;;;3.03;;
39728;SDS011;25402;42.004;23.088;2024-01-10T04:07:04;8.75;;;3.30;;
39728;SDS011;25402;42.004;23.088;2024-01-10T04:09:32;13.65;;;3.42;;
39728;SDS011;25402;42.004;23.088;2024-01-10T04:11:59;10.00;;;3.72;;
39728;SDS011;25402;42.004;23.088;2024-01-10T04:14:26;5.82;;;3.10;;
39728;SDS011;25402;42.004;23.088;2024-01-10T04:16:53;9.85;;;3.85;;
39728;SDS011;25402;42.004;23.088;2024-01-10T04:19:20;8.93;;;3.63;;
39728;SDS011;25402;42.004;23.088;2024-01-10T04:21:47;9.88;;;3.85;;
39728;SDS011;25402;42.004;23.088;2024-01-10T04:24:14;8.73;;;3.15;;
39728;SDS011;25402;42.004;23.088;2024-01-10T04:26:45;12.00;;;3.65;;
39728;SDS011;25402;42.004;23.088;2024-01-10T04:29:12;13.07;;;3.15;;
39728;SDS011;25402;42.004;23.088;2024-01-10T04:31:39;12.02;;;3.53;;
39728;SDS011;25402;42.004;23.088;2024-01-10T04:34:07;20.27;;;3.80;;
39728;SDS011;25402;42.004;23.088;2024-01-10T04:36:34;11.70;;;4.13;;
39728;SDS011;25402;42.004;23.088;2024-01-10T04:39:01;11.57;;;3.22;;
39728;SDS011;25402;42.004;23.088;2024-01-10T04:41:28;18.23;;;4.78;;
39728;SDS011;25402;42.004;23.088;2024-01-10T04:43:57;30.83;;;5.90;;
39728;SDS011;25402;42.004;23.088;2024-01-10T04:46:24;21.42;;;6.10;;
39728;SDS011;25402;42.004;23.088;2024-01-10T04:48:51;14.45;;;5.45;;
39728;SDS011;25402;42.004;23.088;2024-01-10T04:51:18;17.08;;;5.68;;
39728;SDS011;25402;42.004;23.088;2024-01-10T04:53:45;15.32;;;5.80;;
39728;SDS011;25402;42.004;23.088;2024-01-10T04:56:12;15.05;;;5.85;;
39728;SDS011;25402;42.004;23.088;2024-01-10T04:58:39;22.65;;;5.00;;
39728;SDS011;25402;42.004;23.088;2024-01-10T05:01:08;19.17;;;6.88;;
39728;SDS011;25402;42.004;23.088;2024-01-10T05:03:35;17.13;;;6.85;;
39728;SDS011;25402;42.004;23.088;2024-01-10T05:06:02;17.50;;;6.10;;
39728;SDS011;25402;42.004;23.088;2024-01-10T05:08:30;17.20;;;5.97;;
39728;SDS011;25402;42.004;23.088;2024-01-10T05:10:57;17.00;;;5.65;;
39728;SDS011;25402;42.004;23.088;2024-01-10T05:13:24;13.93;;;4.90;;
39728;SDS011;25402;42.004;23.088;2024-01-10T05:15:51;13.45;;;4.90;;
39728;SDS011;25402;42.004;23.088;2024-01-10T05:18:20;13.38;;;4.03;;
39728;SDS011;25402;42.004;23.088;2024-01-10T05:20:47;13.25;;;4.00;;
39728;SDS011;25402;42.004;23.088;2024-01-10T05:23:15;14.73;;;4.13;;
39728;SDS011;25402;42.004;23.088;2024-01-10T05:25:42;12.40;;;3.97;;
39728;SDS011;25402;42.004;23.088;2024-01-10T05:28:09;15.40;;;4.05;;
39728;SDS011;25402;42.004;23.088;2024-01-10T05:30:36;13.85;;;4.10;;
39728;SDS011;25402;42.004;23.088;2024-01-10T05:33:03;14.48;;;5.30;;
39728;SDS011;25402;42.004;23.088;2024-01-10T05:35:32;17.35;;;4.40;;
39728;SDS011;25402;42.004;23.088;2024-01-10T05:38:00;15.85;;;5.35;;
39728;SDS011;25402;42.004;23.088;2024-01-10T05:40:29;21.58;;;8.73;;
39728;SDS011;25402;42.004;23.088;2024-01-10T05:42:56;54.72;;;11.80;;
39728;SDS011;25402;42.004;23.088;2024-01-10T05:45:24;24.38;;;9.70;;
39728;SDS011;25402;42.004;23.088;2024-01-10T05:47:51;27.40;;;10.38;;
39728;SDS011;25402;42.004;23.088;2024-01-10T05:50:18;27.05;;;9.52;;
39728;SDS011;25402;42.004;23.088;2024-01-10T05:52:47;34.38;;;9.52;;
39728;SDS011;25402;42.004;23.088;2024-01-10T05:55:14;39.15;;;12.10;;
39728;SDS011;25402;42.004;23.088;2024-01-10T05:57:41;18.67;;;6.88;;
39728;SDS011;25402;42.004;23.088;2024-01-10T06:00:09;21.25;;;6.07;;
39728;SDS011;25402;42.004;23.088;2024-01-10T06:02:38;40.90;;;5.13;;
39728;SDS011;25402;42.004;23.088;2024-01-10T06:05:06;17.38;;;5.25;;
39728;SDS011;25402;42.004;23.088;2024-01-10T06:07:35;18.33;;;4.70;;
39728;SDS011;25402;42.004;23.088;2024-01-10T06:10:04;14.07;;;4.90;;
39728;SDS011;25402;42.004;23.088;2024-01-10T06:12:31;12.32;;;5.60;;
39728;SDS011;25402;42.004;23.088;2024-01-10T06:14:59;19.23;;;5.63;;
39728;SDS011;25402;42.004;23.088;2024-01-10T06:17:26;13.48;;;5.40;;
39728;SDS011;25402;42.004;23.088;2024-01-10T06:19:54;13.45;;;5.45;;
39728;SDS011;25402;42.004;23.088;2024-01-10T06:22:21;13.63;;;5.07;;
39728;SDS011;25402;42.004;23.088;2024-01-10T06:24:50;23.08;;;5.35;;
39728;SDS011;25402;42.004;23.088;2024-01-10T06:27:18;21.23;;;5.75;;
39728;SDS011;25402;42.004;23.088;2024-01-10T06:29:46;32.70;;;7.15;;
39728;SDS011;25402;42.004;23.088;2024-01-10T06:32:14;26.60;;;6.20;;
39728;SDS011;25402;42.004;23.088;2024-01-10T06:34:42;16.77;;;5.32;;
39728;SDS011;25402;42.004;23.088;2024-01-10T06:37:10;24.70;;;6.03;;
39728;SDS011;25402;42.004;23.088;2024-01-10T06:39:37;20.98;;;6.55;;
39728;SDS011;25402;42.004;23.088;2024-01-10T06:42:04;17.40;;;7.35;;
39728;SDS011;25402;42.004;23.088;2024-01-10T06:44:35;18.23;;;5.28;;
39728;SDS011;25402;42.004;23.088;2024-01-10T06:47:02;16.25;;;4.95;;
39728;SDS011;25402;42.004;23.088;2024-01-10T06:49:29;16.92;;;3.97;;
39728;SDS011;25402;42.004;23.088;2024-01-10T06:51:56;11.23;;;4.07;;
39728;SDS011;25402;42.004;23.088;2024-01-10T06:54:25;13.60;;;4.35;;
39728;SDS011;25402;42.004;23.088;2024-01-10T06:56:52;17.83;;;5.22;;
39728;SDS011;25402;42.004;23.088;2024-01-10T06:59:19;11.63;;;4.35;;
39728;SDS011;25402;42.004;23.088;2024-01-10T07:01:52;12.75;;;4.40;;
39728;SDS011;25402;42.004;23.088;2024-01-10T07:04:21;16.70;;;4.65;;
39728;SDS011;25402;42.004;23.088;2024-01-10T07:06:49;12.45;;;6.30;;
39728;SDS011;25402;42.004;23.088;2024-01-10T07:09:16;9.70;;;4.60;;
39728;SDS011;25402;42.004;23.088;2024-01-10T07:11:45;16.98;;;5.82;;
39728;SDS011;25402;42.004;23.088;2024-01-10T07:14:13;14.30;;;5.88;;
39728;SDS011;25402;42.004;23.088;2024-01-10T07:16:40;14.73;;;4.95;;
39728;SDS011;25402;42.004;23.088;2024-01-10T07:19:12;13.88;;;5.38;;
39728;SDS011;25402;42.004;23.088;2024-01-10T07:21:39;20.55;;;6.10;;
39728;SDS011;25402;42.004;23.088;2024-01-10T07:24:07;11.32;;;5.03;;
39728;SDS011;25402;42.004;23.088;2024-01-10T07:26:35;22.52;;;5.28;;
39728;SDS011;25402;42.004;23.088;2024-01-10T07:29:02;11.00;;;4.50;;
39728;SDS011;25402;42.004;23.088;2024-01-10T07:31:33;11.80;;;4.88;;
39728;SDS011;25402;42.004;23.088;2024-01-10T07:34:00;13.82;;;5.10;;
39728;SDS011;25402;42.004;23.088;2024-01-10T07:36:31;13.20;;;4.45;;
39728;SDS011;25402;42.004;23.088;2024-01-10T07:39:00;13.00;;;5.05;;
39728;SDS011;25402;42.004;23.088;2024-01-10T07:41:27;23.48;;;5.38;;
39728;SDS011;25402;42.004;23.088;2024-01-10T07:43:54;25.83;;;6.05;;
39728;SDS011;25402;42.004;23.088;2024-01-10T07:46:22;10.00;;;4.85;;
39728;SDS011;25402;42.004;23.088;2024-01-10T07:48:49;21.45;;;5.88;;
39728;SDS011;25402;42.004;23.088;2024-01-10T07:51:16;11.05;;;4.40;;
39728;SDS011;25402;42.004;23.088;2024-01-10T07:53:45;17.50;;;5.32;;
39728;SDS011;25402;42.004;23.088;2024-01-10T07:56:13;13.68;;;5.68;;
39728;SDS011;25402;42.004;23.088;2024-01-10T07:58:41;15.73;;;5.53;;
39728;SDS011;25402;42.004;23.088;2024-01-10T08:01:08;24.05;;;5.80;;
39728;SDS011;25402;42.004;23.088;2024-01-10T08:03:36;16.90;;;5.53;;
39728;SDS011;25402;42.004;23.088;2024-01-10T08:06:04;24.63;;;10.20;;
39728;SDS011;25402;42.004;23.088;2024-01-10T08:08:31;25.25;;;10.70;;
39728;SDS011;25402;42.004;23.088;2024-01-10T08:11:00;20.88;;;5.78;;
39728;SDS011;25402;42.004;23.088;2024-01-10T08:13:27;22.20;;;5.10;;
39728;SDS011;25402;42.004;23.088;2024-01-10T08:15:54;19.00;;;4.03;;
39728;SDS011;25402;42.004;23.088;2024-01-10T08:18:21;12.88;;;4.03;;
39728;SDS011;25402;42.004;23.088;2024-01-10T08:20:49;5.38;;;2.70;;
39728;SDS011;25402;42.004;23.088;2024-01-10T08:23:16;17.77;;;4.07;;
39728;SDS011;25402;42.004;23.088;2024-01-10T08:25:43;11.93;;;3.42;;
39728;SDS011;25402;42.004;23.088;2024-01-10T08:28:12;6.32;;;2.80;;
39728;SDS011;25402;42.004;23.088;2024-01-10T08:30:39;11.25;;;2.83;;
39728;SDS011;25402;42.004;23.088;2024-01-10T08:33:06;11.13;;;3.03;;
39728;SDS011;25402;42.004;23.088;2024-01-10T08:35:33;10.43;;;3.30;;
39728;SDS011;25402;42.004;23.088;2024-01-10T08:38:00;9.63;;;3.58;;
39728;SDS011;25402;42.004;23.088;2024-01-10T08:40:29;15.48;;;4.88;;
39728;SDS011;25402;42.004;23.088;2024-01-10T08:42:56;13.70;;;3.60;;
39728;SDS011;25402;42.004;23.088;2024-01-10T08:45:25;16.60;;;3.35;;
39728;SDS011;25402;42.004;23.088;2024-01-10T08:47:52;9.60;;;3.38;;
39728;SDS011;25402;42.004;23.088;2024-01-10T08:50:20;9.73;;;3.20;;
39728;SDS011;25402;42.004;23.088;2024-01-10T08:52:47;11.25;;;3.85;;
39728;SDS011;25402;42.004;23.088;2024-01-10T08:55:14;13.95;;;3.65;;
39728;SDS011;25402;42.004;23.088;2024-01-10T08:57:41;10.75;;;3.17;;
39728;SDS011;25402;42.004;23.088;2024-01-10T09:00:11;24.95;;;3.60;;
39728;SDS011;25402;42.004;23.088;2024-01-10T09:02:43;8.57;;;3.63;;
39728;SDS011;25402;42.004;23.088;2024-01-10T09:05:10;6.53;;;3.22;;
39728;SDS011;25402;42.004;23.088;2024-01-10T09:07:37;11.40;;;3.13;;
39728;SDS011;25402;42.004;23.088;2024-01-10T09:10:05;17.50;;;4.82;;
39728;SDS011;25402;42.004;23.088;2024-01-10T09:12:33;10.27;;;3.92;;
39728;SDS011;25402;42.004;23.088;2024-01-10T09:15:00;9.32;;;3.50;;
39728;SDS011;25402;42.004;23.088;2024-01-10T09:17:28;8.90;;;3.65;;
39728;SDS011;25402;42.004;23.088;2024-01-10T09:19:56;12.13;;;3.33;;
39728;SDS011;25402;42.004;23.088;2024-01-10T09:22:24;13.90;;;3.97;;
39728;SDS011;25402;42.004;23.088;2024-01-10T09:24:51;13.90;;;3.88;;
39728;SDS011;25402;42.004;23.088;2024-01-10T09:27:19;11.27;;;3.45;;
39728;SDS011;25402;42.004;23.088;2024-01-10T09:29:47;6.70;;;3.50;;
39728;SDS011;25402;42.004;23.088;2024-01-10T09:32:14;9.93;;;3.15;;
39728;SDS011;25402;42.004;23.088;2024-01-10T09:34:42;11.60;;;3.55;;
39728;SDS011;25402;42.004;23.088;2024-01-10T09:37:11;8.15;;;3.50;;
39728;SDS011;25402;42.004;23.088;2024-01-10T09:39:38;7.22;;;3.22;;
39728;SDS011;25402;42.004;23.088;2024-01-10T09:42:05;7.45;;;3.22;;
39728;SDS011;25402;42.004;23.088;2024-01-10T09:44:32;10.68;;;3.25;;
39728;SDS011;25402;42.004;23.088;2024-01-10T09:46:59;8.73;;;3.47;;
39728;SDS011;25402;42.004;23.088;2024-01-10T09:49:27;9.93;;;3.45;;
39728;SDS011;25402;42.004;23.088;2024-01-10T09:51:57;9.85;;;3.28;;
39728;SDS011;25402;42.004;23.088;2024-01-10T09:54:28;7.28;;;2.95;;
39728;SDS011;25402;42.004;23.088;2024-01-10T09:56:56;9.75;;;2.67;;
39728;SDS011;25402;42.004;23.088;2024-01-10T09:59:24;5.50;;;2.75;;
39728;SDS011;25402;42.004;23.088;2024-01-10T10:01:51;6.55;;;2.72;;
39728;SDS011;25402;42.004;23.088;2024-01-10T10:04:19;9.13;;;3.00;;
39728;SDS011;25402;42.004;23.088;2024-01-10T10:06:56;8.07;;;3.03;;
39728;SDS011;25402;42.004;23.088;2024-01-10T10:09:27;4.15;;;2.58;;
39728;SDS011;25402;42.004;23.088;2024-01-10T10:11:55;8.27;;;3.20;;
39728;SDS011;25402;42.004;23.088;2024-01-10T10:14:22;10.77;;;2.88;;
39728;SDS011;25402;42.004;23.088;2024-01-10T10:16:52;8.23;;;3.00;;
39728;SDS011;25402;42.004;23.088;2024-01-10T10:19:22;6.53;;;2.80;;
39728;SDS011;25402;42.004;23.088;2024-01-10T10:21:50;7.28;;;2.90;;
39728;SDS011;25402;42.004;23.088;2024-01-10T10:24:17;9.07;;;2.80;;
39728;SDS011;25402;42.004;23.088;2024-01-10T10:26:46;6.97;;;2.78;;
39728;SDS011;25402;42.004;23.088;2024-01-10T10:29:16;4.75;;;2.63;;
39728;SDS011;25402;42.004;23.088;2024-01-10T10:31:47;11.85;;;3.17;;
39728;SDS011;25402;42.004;23.088;2024-01-10T10:34:16;9.60;;;2.78;;
39728;SDS011;25402;42.004;23.088;2024-01-10T10:36:47;5.30;;;2.20;;
39728;SDS011;25402;42.004;23.088;2024-01-10T10:39:16;19.23;;;4.70;;
39728;SDS011;25402;42.004;23.088;2024-01-10T10:41:43;7.25;;;2.55;;
39728;SDS011;25402;42.004;23.088;2024-01-10T10:44:14;9.05;;;3.25;;
39728;SDS011;25402;42.004;23.088;2024-01-10T10:49:15;10.18;;;2.50;;
39728;SDS011;25402;42.004;23.088;2024-01-10T10:51:46;8.05;;;2.60;;
39728;SDS011;25402;42.004;23.088;2024-01-10T10:54:14;10.55;;;3.35;;
39728;SDS011;25402;42.004;23.088;2024-01-10T10:56:43;7.38;;;2.90;;
39728;SDS011;25402;42.004;23.088;2024-01-10T10:59:11;4.72;;;2.67;;
39728;SDS011;25402;42.004;23.088;2024-01-10T11:01:42;11.77;;;3.20;;
39728;SDS011;25402;42.004;23.088;2024-01-10T11:04:11;16.30;;;2.67;;
39728;SDS011;25402;42.004;23.088;2024-01-10T11:06:40;8.13;;;2.75;;
39728;SDS011;25402;42.004;23.088;2024-01-10T11:09:07;6.40;;;2.72;;
39728;SDS011;25402;42.004;23.088;2024-01-10T11:11:39;8.27;;;2.88;;
39728;SDS011;25402;42.004;23.088;2024-01-10T11:14:20;10.98;;;3.60;;
39728;SDS011;25402;42.004;23.088;2024-01-10T11:17:23;8.30;;;2.70;;
39728;SDS011;25402;42.004;23.088;2024-01-10T11:20:13;8.23;;;3.25;;
39728;SDS011;25402;42.004;23.088;2024-01-10T11:22:47;7.72;;;3.20;;
39728;SDS011;25402;42.004;23.088;2024-01-10T11:25:32;5.88;;;2.85;;
39728;SDS011;25402;42.004;23.088;2024-01-10T11:28:02;6.40;;;2.85;;
39728;SDS011;25402;42.004;23.088;2024-01-10T11:30:30;11.68;;;3.28;;
39728;SDS011;25402;42.004;23.088;2024-01-10T11:33:02;8.02;;;3.40;;
39728;SDS011;25402;42.004;23.088;2024-01-10T11:35:50;10.98;;;3.33;;
39728;SDS011;25402;42.004;23.088;2024-01-10T11:38:33;6.68;;;3.10;;
39728;SDS011;25402;42.004;23.088;2024-01-10T11:41:00;9.98;;;3.67;;
39728;SDS011;25402;42.004;23.088;2024-01-10T11:43:29;5.55;;;3.00;;
39728;SDS011;25402;42.004;23.088;2024-01-10T11:45:56;11.38;;;3.25;;
39728;SDS011;25402;42.004;23.088;2024-01-10T11:48:28;11.20;;;3.03;;
39728;SDS011;25402;42.004;23.088;2024-01-10T11:50:56;7.30;;;2.80;;
39728;SDS011;25402;42.004;23.088;2024-01-10T11:56:11;7.20;;;3.10;;
39728;SDS011;25402;42.004;23.088;2024-01-10T11:58:54;7.32;;;2.70;;
39728;SDS011;25402;42.004;23.088;2024-01-10T12:01:22;8.23;;;2.97;;
39728;SDS011;25402;42.004;23.088;2024-01-10T12:03:51;7.35;;;3.95;;
39728;SDS011;25402;42.004;23.088;2024-01-10T12:06:20;9.60;;;3.53;;
39728;SDS011;25402;42.004;23.088;2024-01-10T12:08:48;5.38;;;2.63;;
39728;SDS011;25402;42.004;23.088;2024-01-10T12:11:15;6.78;;;2.92;;
39728;SDS011;25402;42.004;23.088;2024-01-10T12:13:43;8.60;;;3.15;;
39728;SDS011;25402;42.004;23.088;2024-01-10T12:16:11;5.97;;;3.15;;
39728;SDS011;25402;42.004;23.088;2024-01-10T12:18:39;10.98;;;3.17;;
39728;SDS011;25402;42.004;23.088;2024-01-10T12:21:08;5.50;;;2.67;;
39728;SDS011;25402;42.004;23.088;2024-01-10T12:23:35;7.13;;;3.20;;
39728;SDS011;25402;42.004;23.088;2024-01-10T12:26:04;7.75;;;3.28;;
39728;SDS011;25402;42.004;23.088;2024-01-10T12:28:34;8.30;;;3.05;;
39728;SDS011;25402;42.004;23.088;2024-01-10T12:31:01;6.95;;;2.97;;
39728;SDS011;25402;42.004;23.088;2024-01-10T12:33:30;12.40;;;3.90;;
39728;SDS011;25402;42.004;23.088;2024-01-10T12:36:05;8.20;;;3.92;;
39728;SDS011;25402;42.004;23.088;2024-01-10T12:38:36;8.18;;;4.22;;
39728;SDS011;25402;42.004;23.088;2024-01-10T12:41:04;5.95;;;3.20;;
39728;SDS011;25402;42.004;23.088;2024-01-10T12:43:34;9.45;;;3.30;;
39728;SDS011;25402;42.004;23.088;2024-01-10T12:46:07;7.55;;;4.05;;
39728;SDS011;25402;42.004;23.088;2024-01-10T12:48:36;17.13;;;3.50;;
39728;SDS011;25402;42.004;23.088;2024-01-10T12:51:07;7.75;;;3.50;;
39728;SDS011;25402;42.004;23.088;2024-01-10T12:53:36;10.18;;;3.78;;
39728;SDS011;25402;42.004;23.088;2024-01-10T12:56:05;9.35;;;4.00;;
39728;SDS011;25402;42.004;23.088;2024-01-10T12:58:39;10.18;;;3.88;;
39728;SDS011;25402;42.004;23.088;2024-01-10T13:01:08;10.40;;;3.95;;
39728;SDS011;25402;42.004;23.088;2024-01-10T13:03:35;14.13;;;3.80;;
39728;SDS011;25402;42.004;23.088;2024-01-10T13:06:05;6.88;;;3.40;;
39728;SDS011;25402;42.004;23.088;2024-01-10T13:08:34;9.73;;;4.80;;
39728;SDS011;25402;42.004;23.088;2024-01-10T13:11:01;12.68;;;4.28;;
39728;SDS011;25402;42.004;23.088;2024-01-10T13:13:33;18.27;;;5.70;;
39728;SDS011;25402;42.004;23.088;2024-01-10T13:16:00;7.75;;;3.55;;
39728;SDS011;25402;42.004;23.088;2024-01-10T13:18:27;11.18;;;4.53;;
39728;SDS011;25402;42.004;23.088;2024-01-10T13:20:54;10.48;;;3.97;;
39728;SDS011;25402;42.004;23.088;2024-01-10T13:23:22;11.25;;;4.10;;
39728;SDS011;25402;42.004;23.088;2024-01-10T13:25:51;12.02;;;4.93;;
39728;SDS011;25402;42.004;23.088;2024-01-10T13:28:18;8.60;;;4.15;;
39728;SDS011;25402;42.004;23.088;2024-01-10T13:30:45;9.85;;;4.18;;
39728;SDS011;25402;42.004;23.088;2024-01-10T13:33:12;11.40;;;3.88;;
39728;SDS011;25402;42.004;23.088;2024-01-10T13:35:40;9.23;;;3.80;;
39728;SDS011;25402;42.004;23.088;2024-01-10T13:38:07;10.43;;;3.60;;
39728;SDS011;25402;42.004;23.088;2024-01-10T13:40:35;9.77;;;4.03;;
39728;SDS011;25402;42.004;23.088;2024-01-10T13:48:10;14.10;;;5.28;;
39728;SDS011;25402;42.004;23.088;2024-01-10T13:50:37;9.07;;;3.90;;
39728;SDS011;25402;42.004;23.088;2024-01-10T13:53:04;7.78;;;3.78;;
39728;SDS011;25402;42.004;23.088;2024-01-10T13:55:31;17.33;;;4.85;;
39728;SDS011;25402;42.004;23.088;2024-01-10T13:58:02;14.07;;;4.93;;
39728;SDS011;25402;42.004;23.088;2024-01-10T14:00:29;10.73;;;4.90;;
39728;SDS011;25402;42.004;23.088;2024-01-10T14:02:56;17.58;;;4.40;;
39728;SDS011;25402;42.004;23.088;2024-01-10T14:05:29;11.05;;;4.78;;
39728;SDS011;25402;42.004;23.088;2024-01-10T14:07:56;11.23;;;4.25;;
39728;SDS011;25402;42.004;23.088;2024-01-10T14:10:23;17.77;;;3.95;;
39728;SDS011;25402;42.004;23.088;2024-01-10T14:12:50;22.40;;;4.63;;
39728;SDS011;25402;42.004;23.088;2024-01-10T14:15:17;21.55;;;4.95;;
39728;SDS011;25402;42.004;23.088;2024-01-10T14:17:44;12.25;;;4.10;;
39728;SDS011;25402;42.004;23.088;2024-01-10T14:20:12;10.40;;;4.47;;
39728;SDS011;25402;42.004;23.088;2024-01-10T14:22:40;12.23;;;4.70;;
39728;SDS011;25402;42.004;23.088;2024-01-10T14:25:08;12.27;;;4.50;;
39728;SDS011;25402;42.004;23.088;2024-01-10T14:27:36;14.30;;;5.90;;
39728;SDS011;25402;42.004;23.088;2024-01-10T14:30:05;19.08;;;4.47;;
39728;SDS011;25402;42.004;23.088;2024-01-10T14:32:35;12.05;;;5.20;;
39728;SDS011;25402;42.004;23.088;2024-01-10T14:35:03;11.02;;;5.18;;
39728;SDS011;25402;42.004;23.088;2024-01-10T14:37:31;17.83;;;6.03;;
39728;SDS011;25402;42.004;23.088;2024-01-10T14:40:02;16.48;;;5.50;;
39728;SDS011;25402;42.004;23.088;2024-01-10T14:42:31;22.02;;;5.18;;